VJT716 LPMA-TNCM
Flight info
| Callsign | VJT716 |
|---|---|
| Flight time | N/A |
| Altitude | 47000 |
| Route | NIDUL DCT 3220N DCT 3225N DCT 3130N DCT 3035N DCT 2940N DCT 2745N DCT 2550N DCT 2355N DCT RKDIA DCT OBIKE DCT NEYDU DCT PFANG |
| Aircraft | GL7T/M-SBDE2E3FGHIJ4J5M1RWXY/LB1D1 |
Departure
| Time | N/A |
|---|---|
| Airport | Cristiano Ronaldo International Airport (LPMA) |
Arrival
| Time | 2026-05-03 21:56 |
|---|---|
| Airport | Princess Juliana International Airport (TNCM) |
| Time | Latitude | Longitude | Altitude | Speed | Heading |
|---|---|---|---|---|---|
| 2026-05-03 20:15 | 24.36121 | -51.65915 | 47124 ft | 493 kts | 252° |
| 2026-05-03 20:15 | 24.33405 | -51.72835 | 47129 ft | 493 kts | 252° |
| 2026-05-03 20:16 | 24.30707 | -51.79692 | 47123 ft | 493 kts | 252° |
| 2026-05-03 20:16 | 24.27969 | -51.86641 | 47136 ft | 493 kts | 252° |
| 2026-05-03 20:17 | 24.25264 | -51.93493 | 47123 ft | 493 kts | 252° |
| 2026-05-03 20:17 | 24.22537 | -52.00394 | 47131 ft | 493 kts | 252° |
| 2026-05-03 20:18 | 24.19809 | -52.07290 | 47126 ft | 494 kts | 252° |
| 2026-05-03 20:18 | 24.17068 | -52.14195 | 47128 ft | 494 kts | 252° |
| 2026-05-03 20:19 | 24.14326 | -52.21106 | 47128 ft | 494 kts | 252° |
| 2026-05-03 20:19 | 24.11583 | -52.27999 | 47134 ft | 494 kts | 252° |
| 2026-05-03 20:20 | 24.08836 | -52.34897 | 47130 ft | 494 kts | 252° |
| 2026-05-03 20:20 | 24.06104 | -52.41747 | 47130 ft | 494 kts | 252° |
| 2026-05-03 20:21 | 24.03347 | -52.48640 | 47134 ft | 494 kts | 252° |
| 2026-05-03 20:21 | 24.00592 | -52.55531 | 47133 ft | 494 kts | 252° |
| 2026-05-03 20:22 | 23.97831 | -52.62413 | 47128 ft | 494 kts | 252° |
| 2026-05-03 20:22 | 23.95073 | -52.69289 | 47128 ft | 494 kts | 252° |
| 2026-05-03 20:23 | 23.92306 | -52.76168 | 47128 ft | 494 kts | 252° |
| 2026-05-03 20:23 | 23.89554 | -52.83003 | 47131 ft | 494 kts | 252° |
| 2026-05-03 20:24 | 23.86780 | -52.89883 | 47130 ft | 494 kts | 252° |
| 2026-05-03 20:24 | 23.84003 | -52.96753 | 47134 ft | 494 kts | 252° |
| 2026-05-03 20:25 | 23.81220 | -53.03639 | 47135 ft | 495 kts | 252° |
| 2026-05-03 20:25 | 23.78433 | -53.10512 | 47134 ft | 495 kts | 252° |
| 2026-05-03 20:26 | 23.75648 | -53.17383 | 47134 ft | 495 kts | 252° |
| 2026-05-03 20:26 | 23.73324 | -53.23095 | 47133 ft | 495 kts | 252° |
| 2026-05-03 20:27 | 23.70528 | -53.29973 | 47132 ft | 496 kts | 252° |
| 2026-05-03 20:27 | 23.67720 | -53.36862 | 47127 ft | 496 kts | 252° |
| 2026-05-03 20:28 | 23.64915 | -53.43733 | 47133 ft | 496 kts | 252° |
| 2026-05-03 20:28 | 23.62109 | -53.50603 | 47134 ft | 496 kts | 252° |
| 2026-05-03 20:29 | 23.59313 | -53.57430 | 47134 ft | 496 kts | 252° |
| 2026-05-03 20:29 | 23.56496 | -53.64301 | 47136 ft | 496 kts | 252° |
| 2026-05-03 20:30 | 23.53680 | -53.71162 | 47130 ft | 496 kts | 252° |
| 2026-05-03 20:30 | 23.50853 | -53.78033 | 47130 ft | 497 kts | 252° |
| 2026-05-03 20:31 | 23.48024 | -53.84905 | 47133 ft | 497 kts | 252° |
| 2026-05-03 20:31 | 23.45193 | -53.91770 | 47133 ft | 497 kts | 252° |
| 2026-05-03 20:32 | 23.42355 | -53.98637 | 47133 ft | 497 kts | 252° |
| 2026-05-03 20:32 | 23.39536 | -54.05458 | 47135 ft | 497 kts | 252° |
| 2026-05-03 20:33 | 23.36690 | -54.12324 | 47132 ft | 498 kts | 252° |
| 2026-05-03 20:33 | 23.33837 | -54.19200 | 47135 ft | 498 kts | 252° |
| 2026-05-03 20:34 | 23.30986 | -54.26068 | 47130 ft | 498 kts | 252° |
| 2026-05-03 20:34 | 23.28120 | -54.32947 | 47136 ft | 498 kts | 252° |
| 2026-05-03 20:35 | 23.25259 | -54.39818 | 47136 ft | 498 kts | 252° |
| 2026-05-03 20:35 | 23.22392 | -54.46687 | 47140 ft | 498 kts | 252° |
| 2026-05-03 20:36 | 23.19519 | -54.53558 | 47135 ft | 499 kts | 251° |
| 2026-05-03 20:36 | 23.16650 | -54.60418 | 47132 ft | 499 kts | 251° |
| 2026-05-03 20:37 | 23.13791 | -54.67235 | 47136 ft | 499 kts | 251° |
| 2026-05-03 20:37 | 23.10910 | -54.74097 | 47133 ft | 499 kts | 251° |
| 2026-05-03 20:38 | 23.08029 | -54.80952 | 47139 ft | 498 kts | 251° |
| 2026-05-03 20:38 | 23.05146 | -54.87797 | 47136 ft | 499 kts | 251° |
| 2026-05-03 20:39 | 23.02257 | -54.94657 | 47132 ft | 499 kts | 251° |
| 2026-05-03 20:39 | 22.99410 | -55.01524 | 47121 ft | 497 kts | 253° |
| 2026-05-03 20:40 | 22.96813 | -55.08425 | 47138 ft | 497 kts | 253° |
| 2026-05-03 20:40 | 22.94161 | -55.15357 | 47139 ft | 497 kts | 253° |
| 2026-05-03 20:41 | 22.91532 | -55.22288 | 47137 ft | 497 kts | 253° |
| 2026-05-03 20:41 | 22.88884 | -55.29220 | 47132 ft | 496 kts | 253° |
| 2026-05-03 20:42 | 22.86244 | -55.36143 | 47124 ft | 497 kts | 253° |
| 2026-05-03 20:42 | 22.83591 | -55.43072 | 47126 ft | 497 kts | 253° |
| 2026-05-03 20:43 | 22.80935 | -55.50006 | 47129 ft | 497 kts | 253° |
| 2026-05-03 20:43 | 22.78286 | -55.56914 | 47130 ft | 496 kts | 253° |
| 2026-05-03 20:44 | 22.75650 | -55.63775 | 47133 ft | 496 kts | 253° |
| 2026-05-03 20:44 | 22.72995 | -55.70677 | 47133 ft | 496 kts | 253° |
| 2026-05-03 20:45 | 22.70335 | -55.77578 | 47131 ft | 497 kts | 253° |
| 2026-05-03 20:45 | 22.67674 | -55.84473 | 47127 ft | 496 kts | 253° |
| 2026-05-03 20:46 | 22.65015 | -55.91357 | 47127 ft | 496 kts | 253° |
| 2026-05-03 20:46 | 22.62347 | -55.98244 | 47129 ft | 496 kts | 253° |
| 2026-05-03 20:47 | 22.59679 | -56.05130 | 47130 ft | 496 kts | 253° |
| 2026-05-03 20:47 | 22.57025 | -56.11967 | 47128 ft | 496 kts | 253° |
| 2026-05-03 20:48 | 22.54345 | -56.18856 | 47127 ft | 496 kts | 253° |
| 2026-05-03 20:48 | 22.51668 | -56.25736 | 47123 ft | 496 kts | 253° |
| 2026-05-03 20:49 | 22.48986 | -56.32609 | 47118 ft | 495 kts | 253° |
| 2026-05-03 20:49 | 22.46304 | -56.39479 | 47121 ft | 495 kts | 253° |
| 2026-05-03 20:50 | 22.43623 | -56.46336 | 47119 ft | 495 kts | 253° |
| 2026-05-03 20:50 | 22.40934 | -56.53196 | 47127 ft | 495 kts | 253° |
| 2026-05-03 20:51 | 22.38265 | -56.60005 | 47122 ft | 495 kts | 253° |
| 2026-05-03 20:51 | 22.35574 | -56.66854 | 47123 ft | 495 kts | 253° |
| 2026-05-03 20:52 | 22.32880 | -56.73700 | 47122 ft | 495 kts | 253° |
| 2026-05-03 20:52 | 22.30185 | -56.80545 | 47125 ft | 495 kts | 253° |
| 2026-05-03 20:53 | 22.27485 | -56.87386 | 47126 ft | 495 kts | 253° |
| 2026-05-03 20:53 | 22.24784 | -56.94223 | 47126 ft | 495 kts | 252° |
| 2026-05-03 20:54 | 22.22078 | -57.01064 | 47123 ft | 495 kts | 252° |
| 2026-05-03 20:54 | 22.18008 | -57.11331 | 47113 ft | 496 kts | 252° |
| 2026-05-03 20:55 | 22.15291 | -57.18168 | 47122 ft | 496 kts | 252° |
| 2026-05-03 20:55 | 22.12576 | -57.25002 | 47121 ft | 496 kts | 252° |
| 2026-05-03 20:56 | 22.09851 | -57.31842 | 47125 ft | 496 kts | 252° |
| 2026-05-03 20:56 | 22.07123 | -57.38679 | 47111 ft | 496 kts | 252° |
| 2026-05-03 20:57 | 22.04416 | -57.45463 | 47123 ft | 495 kts | 252° |
| 2026-05-03 20:57 | 22.01686 | -57.52282 | 47121 ft | 496 kts | 252° |
| 2026-05-03 20:58 | 21.98952 | -57.59114 | 47123 ft | 496 kts | 252° |
| 2026-05-03 20:58 | 21.96212 | -57.65941 | 47110 ft | 495 kts | 252° |
| 2026-05-03 20:59 | 21.93482 | -57.72741 | 47125 ft | 495 kts | 252° |
| 2026-05-03 20:59 | 21.90746 | -57.79545 | 47126 ft | 495 kts | 252° |
| 2026-05-03 21:00 | 21.88929 | -57.84053 | 47122 ft | 495 kts | 252° |
| 2026-05-03 21:00 | 21.85281 | -57.93100 | 47109 ft | 493 kts | 252° |
| 2026-05-03 21:01 | 21.82545 | -57.99877 | 47125 ft | 493 kts | 252° |
| 2026-05-03 21:01 | 21.79805 | -58.06646 | 47125 ft | 493 kts | 252° |
| 2026-05-03 21:02 | 21.77064 | -58.13420 | 47125 ft | 493 kts | 252° |
| 2026-05-03 21:02 | 21.74319 | -58.20183 | 47119 ft | 493 kts | 252° |
| 2026-05-03 21:03 | 21.71600 | -58.26876 | 47119 ft | 491 kts | 251° |
| 2026-05-03 21:03 | 21.68868 | -58.33598 | 47119 ft | 491 kts | 251° |
| 2026-05-03 21:04 | 21.66128 | -58.40324 | 47115 ft | 491 kts | 251° |
| 2026-05-03 21:04 | 21.63388 | -58.47041 | 47119 ft | 491 kts | 251° |
| 2026-05-03 21:05 | 21.60649 | -58.53750 | 47115 ft | 490 kts | 251° |
| 2026-05-03 21:05 | 21.57907 | -58.60454 | 47116 ft | 490 kts | 251° |
| 2026-05-03 21:06 | 21.55180 | -58.67114 | 47122 ft | 490 kts | 251° |
| 2026-05-03 21:06 | 21.52435 | -58.73810 | 47123 ft | 490 kts | 251° |
| 2026-05-03 21:07 | 21.49682 | -58.80509 | 47120 ft | 490 kts | 251° |
| 2026-05-03 21:07 | 21.46925 | -58.87220 | 47119 ft | 490 kts | 251° |
| 2026-05-03 21:08 | 21.44171 | -58.93909 | 47113 ft | 490 kts | 251° |
| 2026-05-03 21:08 | 21.41411 | -59.00600 | 47114 ft | 490 kts | 251° |
| 2026-05-03 21:09 | 21.38652 | -59.07288 | 47113 ft | 490 kts | 251° |
| 2026-05-03 21:09 | 21.35892 | -59.13965 | 47111 ft | 490 kts | 251° |
| 2026-05-03 21:10 | 21.33128 | -59.20639 | 47116 ft | 490 kts | 251° |
| 2026-05-03 21:10 | 21.30362 | -59.27319 | 47114 ft | 490 kts | 250° |
| 2026-05-03 21:11 | 21.27591 | -59.33989 | 47117 ft | 489 kts | 250° |
| 2026-05-03 21:11 | 21.24842 | -59.40610 | 47119 ft | 489 kts | 250° |
| 2026-05-03 21:12 | 21.22049 | -59.47315 | 47118 ft | 489 kts | 250° |
| 2026-05-03 21:12 | 21.19292 | -59.53937 | 47118 ft | 489 kts | 250° |
| 2026-05-03 21:13 | 21.16512 | -59.60599 | 47105 ft | 488 kts | 250° |
| 2026-05-03 21:13 | 21.13741 | -59.67230 | 47110 ft | 488 kts | 250° |
| 2026-05-03 21:14 | 21.11436 | -59.72745 | 47109 ft | 488 kts | 250° |
| 2026-05-03 21:14 | 21.08655 | -59.79383 | 47109 ft | 488 kts | 250° |
| 2026-05-03 21:15 | 21.05873 | -59.86018 | 47113 ft | 489 kts | 250° |
| 2026-05-03 21:15 | 21.03091 | -59.92645 | 47107 ft | 487 kts | 250° |
| 2026-05-03 21:16 | 20.99930 | -59.99090 | 47107 ft | 493 kts | 241° |
| 2026-05-03 21:16 | 20.95557 | -60.04812 | 47108 ft | 501 kts | 230° |
| 2026-05-03 21:17 | 20.90652 | -60.10107 | 47112 ft | 500 kts | 230° |
| 2026-05-03 21:17 | 20.85778 | -60.15377 | 47102 ft | 501 kts | 230° |
| 2026-05-03 21:18 | 20.80876 | -60.20664 | 47103 ft | 500 kts | 230° |
| 2026-05-03 21:18 | 20.75978 | -60.25944 | 47100 ft | 500 kts | 230° |
| 2026-05-03 21:19 | 20.71071 | -60.31232 | 47103 ft | 500 kts | 230° |
| 2026-05-03 21:19 | 20.66168 | -60.36504 | 47100 ft | 500 kts | 230° |
| 2026-05-03 21:20 | 20.61255 | -60.41789 | 47097 ft | 501 kts | 230° |
| 2026-05-03 21:20 | 20.56346 | -60.47058 | 47098 ft | 500 kts | 230° |
| 2026-05-03 21:21 | 20.51443 | -60.52319 | 47096 ft | 500 kts | 230° |
| 2026-05-03 21:21 | 20.46562 | -60.57552 | 47090 ft | 500 kts | 230° |
| 2026-05-03 21:22 | 20.41649 | -60.62809 | 47098 ft | 500 kts | 230° |
| 2026-05-03 21:22 | 20.36736 | -60.68067 | 47097 ft | 500 kts | 230° |
| 2026-05-03 21:23 | 20.31826 | -60.73316 | 47094 ft | 500 kts | 230° |
| 2026-05-03 21:23 | 20.26916 | -60.78555 | 47094 ft | 499 kts | 230° |
| 2026-05-03 21:24 | 20.21994 | -60.83727 | 47092 ft | 500 kts | 229° |
| 2026-05-03 21:24 | 20.17355 | -60.89194 | 47092 ft | 496 kts | 234° |
| 2026-05-03 21:25 | 20.12709 | -60.94652 | 47096 ft | 498 kts | 232° |
| 2026-05-03 21:25 | 20.07944 | -61.00019 | 47094 ft | 498 kts | 231° |
| 2026-05-03 21:26 | 20.03222 | -61.05416 | 47087 ft | 498 kts | 231° |
| 2026-05-03 21:26 | 19.98474 | -61.10782 | 47088 ft | 498 kts | 231° |
| 2026-05-03 21:27 | 19.93743 | -61.16163 | 47091 ft | 498 kts | 231° |
| 2026-05-03 21:27 | 19.88996 | -61.21529 | 47084 ft | 498 kts | 231° |
| 2026-05-03 21:28 | 19.84258 | -61.26899 | 47085 ft | 498 kts | 231° |
| 2026-05-03 21:28 | 19.79545 | -61.32225 | 47082 ft | 498 kts | 231° |
| 2026-05-03 21:29 | 19.74805 | -61.37579 | 47085 ft | 498 kts | 231° |
| 2026-05-03 21:29 | 19.70061 | -61.42937 | 47082 ft | 498 kts | 231° |
| 2026-05-03 21:30 | 19.65302 | -61.48298 | 47081 ft | 497 kts | 231° |
| 2026-05-03 21:30 | 19.60563 | -61.53640 | 46505 ft | 497 kts | 231° |
| 2026-05-03 21:31 | 19.58194 | -61.56304 | 45558 ft | 496 kts | 231° |
| 2026-05-03 21:31 | 19.55827 | -61.58970 | 44593 ft | 497 kts | 231° |
| 2026-05-03 21:31 | 19.53454 | -61.61642 | 43466 ft | 498 kts | 231° |
| 2026-05-03 21:31 | 19.51100 | -61.64286 | 42406 ft | 499 kts | 230° |
| 2026-05-03 21:32 | 19.48706 | -61.66973 | 41370 ft | 500 kts | 230° |
| 2026-05-03 21:32 | 19.46321 | -61.69655 | 40388 ft | 500 kts | 230° |
| 2026-05-03 21:32 | 19.43934 | -61.72335 | 39448 ft | 500 kts | 230° |
| 2026-05-03 21:32 | 19.41540 | -61.75018 | 38503 ft | 500 kts | 229° |
| 2026-05-03 21:33 | 19.39156 | -61.77694 | 37451 ft | 499 kts | 229° |
| 2026-05-03 21:33 | 19.36771 | -61.80369 | 36454 ft | 498 kts | 229° |
| 2026-05-03 21:33 | 19.34390 | -61.83035 | 35501 ft | 497 kts | 228° |
| 2026-05-03 21:33 | 19.32025 | -61.85686 | 34579 ft | 496 kts | 228° |
| 2026-05-03 21:34 | 19.29655 | -61.88339 | 33623 ft | 494 kts | 227° |
| 2026-05-03 21:34 | 19.27294 | -61.90980 | 32620 ft | 493 kts | 227° |
| 2026-05-03 21:34 | 19.24941 | -61.93612 | 31650 ft | 492 kts | 227° |
| 2026-05-03 21:34 | 19.22596 | -61.96235 | 30964 ft | 486 kts | 227° |
| 2026-05-03 21:35 | 19.20306 | -61.98794 | 30332 ft | 486 kts | 227° |
| 2026-05-03 21:35 | 19.17971 | -62.01402 | 29642 ft | 488 kts | 227° |
| 2026-05-03 21:35 | 19.15637 | -62.04008 | 28999 ft | 485 kts | 227° |
| 2026-05-03 21:35 | 19.13340 | -62.06573 | 28354 ft | 476 kts | 227° |
| 2026-05-03 21:36 | 19.11074 | -62.09100 | 27739 ft | 470 kts | 227° |
| 2026-05-03 21:36 | 19.08841 | -62.11590 | 27123 ft | 466 kts | 227° |
| 2026-05-03 21:36 | 19.06612 | -62.14075 | 26510 ft | 462 kts | 227° |
| 2026-05-03 21:36 | 19.04413 | -62.16525 | 25905 ft | 459 kts | 227° |
| 2026-05-03 21:37 | 19.02219 | -62.18970 | 25300 ft | 456 kts | 227° |
| 2026-05-03 21:37 | 19.00049 | -62.21385 | 24704 ft | 453 kts | 227° |
| 2026-05-03 21:37 | 18.97879 | -62.23800 | 24107 ft | 450 kts | 227° |
| 2026-05-03 21:37 | 18.95730 | -62.26191 | 23493 ft | 448 kts | 227° |
| 2026-05-03 21:38 | 18.93596 | -62.28562 | 22878 ft | 442 kts | 227° |
| 2026-05-03 21:38 | 18.91492 | -62.30901 | 22297 ft | 436 kts | 227° |
| 2026-05-03 21:38 | 18.89416 | -62.33209 | 21723 ft | 431 kts | 227° |
| 2026-05-03 21:38 | 18.87363 | -62.35489 | 21156 ft | 424 kts | 227° |
| 2026-05-03 21:39 | 18.85365 | -62.37705 | 20604 ft | 419 kts | 228° |
| 2026-05-03 21:39 | 18.83374 | -62.39919 | 20058 ft | 413 kts | 228° |
| 2026-05-03 21:39 | 18.81405 | -62.42102 | 19519 ft | 408 kts | 228° |
| 2026-05-03 21:39 | 18.79458 | -62.44259 | 18981 ft | 404 kts | 228° |
| 2026-05-03 21:40 | 18.77535 | -62.46393 | 18448 ft | 399 kts | 228° |
| 2026-05-03 21:40 | 18.75633 | -62.48502 | 17885 ft | 394 kts | 228° |
| 2026-05-03 21:40 | 18.73752 | -62.50584 | 17367 ft | 389 kts | 228° |
| 2026-05-03 21:40 | 18.71893 | -62.52643 | 16857 ft | 386 kts | 228° |
| 2026-05-03 21:41 | 18.70045 | -62.54692 | 16349 ft | 384 kts | 228° |
| 2026-05-03 21:41 | 18.68204 | -62.56728 | 15840 ft | 382 kts | 228° |
| 2026-05-03 21:41 | 18.66374 | -62.58751 | 15338 ft | 380 kts | 228° |
| 2026-05-03 21:41 | 18.64554 | -62.60766 | 14837 ft | 379 kts | 228° |
| 2026-05-03 21:42 | 18.62740 | -62.62774 | 14332 ft | 378 kts | 227° |
| 2026-05-03 21:42 | 18.60921 | -62.64780 | 13841 ft | 378 kts | 228° |
| 2026-05-03 21:42 | 18.59108 | -62.66784 | 13308 ft | 375 kts | 227° |
| 2026-05-03 21:42 | 18.57339 | -62.68740 | 12820 ft | 372 kts | 227° |
| 2026-05-03 21:43 | 18.55535 | -62.70730 | 12324 ft | 369 kts | 227° |
| 2026-05-03 21:43 | 18.53800 | -62.72647 | 11845 ft | 361 kts | 227° |
| 2026-05-03 21:43 | 18.52101 | -62.74522 | 11379 ft | 347 kts | 226° |
| 2026-05-03 21:43 | 18.50459 | -62.76331 | 10928 ft | 335 kts | 226° |
| 2026-05-03 21:44 | 18.48877 | -62.78078 | 10497 ft | 324 kts | 226° |
| 2026-05-03 21:44 | 18.47343 | -62.79770 | 10073 ft | 315 kts | 226° |
| 2026-05-03 21:44 | 18.45847 | -62.81418 | 9641 ft | 307 kts | 226° |
| 2026-05-03 21:44 | 18.44375 | -62.83040 | 9232 ft | 306 kts | 225° |
| 2026-05-03 21:45 | 18.42916 | -62.84647 | 9071 ft | 299 kts | 225° |
| 2026-05-03 21:45 | 18.41487 | -62.86223 | 9068 ft | 295 kts | 225° |
| 2026-05-03 21:45 | 18.40126 | -62.87838 | 9066 ft | 295 kts | 232° |
| 2026-05-03 21:45 | 18.38995 | -62.89636 | 9066 ft | 295 kts | 237° |
| 2026-05-03 21:46 | 18.37905 | -62.91470 | 9009 ft | 297 kts | 234° |
| 2026-05-03 21:46 | 18.36706 | -62.93238 | 9012 ft | 296 kts | 232° |
| 2026-05-03 21:46 | 18.35487 | -62.94980 | 9012 ft | 296 kts | 233° |
| 2026-05-03 21:46 | 18.34325 | -62.96738 | 9008 ft | 296 kts | 234° |
| 2026-05-03 21:47 | 18.33155 | -62.98524 | 9005 ft | 296 kts | 234° |
| 2026-05-03 21:47 | 18.31964 | -63.00295 | 9009 ft | 295 kts | 233° |
| 2026-05-03 21:47 | 18.30776 | -63.02058 | 9003 ft | 295 kts | 234° |
| 2026-05-03 21:47 | 18.29594 | -63.03829 | 9003 ft | 296 kts | 233° |
| 2026-05-03 21:48 | 18.28410 | -63.05603 | 8928 ft | 298 kts | 233° |
| 2026-05-03 21:48 | 18.27196 | -63.07416 | 8506 ft | 306 kts | 234° |
| 2026-05-03 21:48 | 18.25971 | -63.09247 | 8057 ft | 307 kts | 233° |
| 2026-05-03 21:48 | 18.24735 | -63.11090 | 7589 ft | 309 kts | 233° |
| 2026-05-03 21:49 | 18.23507 | -63.12923 | 7127 ft | 306 kts | 233° |
| 2026-05-03 21:49 | 18.22285 | -63.14751 | 6662 ft | 304 kts | 232° |
| 2026-05-03 21:49 | 18.21068 | -63.16567 | 6192 ft | 303 kts | 232° |
| 2026-05-03 21:49 | 18.19853 | -63.18376 | 5727 ft | 301 kts | 232° |
| 2026-05-03 21:50 | 18.18652 | -63.20169 | 5248 ft | 298 kts | 232° |
| 2026-05-03 21:50 | 18.17465 | -63.21942 | 4818 ft | 295 kts | 232° |
| 2026-05-03 21:50 | 18.16347 | -63.23612 | 4386 ft | 267 kts | 232° |
| 2026-05-03 21:50 | 18.15282 | -63.25196 | 3996 ft | 264 kts | 232° |
| 2026-05-03 21:51 | 18.14222 | -63.26770 | 3602 ft | 264 kts | 232° |
| 2026-05-03 21:51 | 18.13147 | -63.28328 | 3198 ft | 261 kts | 228° |
| 2026-05-03 21:51 | 18.11829 | -63.29506 | 2797 ft | 249 kts | 208° |
| 2026-05-03 21:51 | 18.10276 | -63.30246 | 2608 ft | 238 kts | 193° |
| 2026-05-03 21:52 | 18.08661 | -63.30523 | 2607 ft | 235 kts | 179° |
| 2026-05-03 21:52 | 18.07071 | -63.30364 | 2611 ft | 231 kts | 167° |
| 2026-05-03 21:52 | 18.05569 | -63.29828 | 2599 ft | 227 kts | 151° |
| 2026-05-03 21:52 | 18.04262 | -63.28893 | 2587 ft | 228 kts | 137° |
| 2026-05-03 21:53 | 18.03233 | -63.27634 | 2475 ft | 227 kts | 122° |
| 2026-05-03 21:53 | 18.02563 | -63.26175 | 2312 ft | 218 kts | 108° |
| 2026-05-03 21:53 | 18.02273 | -63.24633 | 2129 ft | 213 kts | 96° |
| 2026-05-03 21:53 | 18.02343 | -63.23101 | 1945 ft | 208 kts | 82° |
| 2026-05-03 21:54 | 18.02574 | -63.21623 | 1762 ft | 202 kts | 82° |
| 2026-05-03 21:54 | 18.02766 | -63.20169 | 1520 ft | 199 kts | 83° |
| 2026-05-03 21:54 | 18.02961 | -63.18786 | 1257 ft | 181 kts | 82° |
| 2026-05-03 21:54 | 18.03133 | -63.17615 | 1061 ft | 146 kts | 82° |
| 2026-05-03 21:55 | 18.03271 | -63.16631 | 865 ft | 131 kts | 82° |
| 2026-05-03 21:55 | 18.03411 | -63.15675 | 712 ft | 132 kts | 82° |
| 2026-05-03 21:55 | 18.03546 | -63.14711 | 541 ft | 133 kts | 82° |
| 2026-05-03 21:55 | 18.03681 | -63.13765 | 353 ft | 130 kts | 82° |
| 2026-05-03 21:56 | 18.03813 | -63.12828 | 242 ft | 130 kts | 81° |
| 2026-05-03 21:56 | 18.03966 | -63.11860 | 64 ft | 137 kts | 83° |
| 2026-05-03 21:56 | 18.04067 | -63.11063 | 26 ft | 53 kts | 83° |
| 2026-05-03 21:56 | 18.04074 | -63.10941 | 27 ft | 10 kts | 200° |
| 2026-05-03 21:57 | 18.04060 | -63.11089 | 26 ft | 24 kts | 267° |
| 2026-05-03 21:57 | 18.04122 | -63.11163 | 26 ft | 12 kts | 351° |
| 2026-05-03 21:57 | 18.04145 | -63.11205 | 26 ft | 13 kts | 266° |
| 2026-05-03 21:57 | 18.04130 | -63.11308 | 26 ft | 16 kts | 274° |
| 2026-05-03 21:58 | 18.04142 | -63.11405 | 26 ft | 0 kts | 265° |